createdAt,value
2022-12-05T00:00:08.627Z,30.37
2022-12-05T00:04:17.728Z,28.70
2022-12-05T00:08:28.324Z,32.53
2022-12-05T00:12:37.506Z,31.37
2022-12-05T00:16:47.171Z,30.07
2022-12-05T00:20:56.349Z,29.83
2022-12-05T00:25:08.508Z,29.73
2022-12-05T00:29:17.668Z,30.50
2022-12-05T00:33:26.869Z,27.80
2022-12-05T00:37:35.988Z,29.77
2022-12-05T00:41:47.050Z,30.20
2022-12-05T00:45:56.187Z,31.03
2022-12-05T00:50:06.407Z,25.60
2022-12-05T00:54:17.167Z,27.60
2022-12-05T00:58:28.809Z,28.80
2022-12-05T01:02:38.075Z,25.17
2022-12-05T01:06:47.503Z,25.43
2022-12-05T01:10:57.652Z,28.33
2022-12-05T01:15:09.995Z,26.40
2022-12-05T01:19:21.029Z,28.07
2022-12-05T01:23:30.229Z,26.80
2022-12-05T01:27:39.547Z,26.43
2022-12-05T01:31:50.604Z,25.17
2022-12-05T01:35:59.784Z,26.93
2022-12-05T01:40:10.427Z,24.97
2022-12-05T01:44:57.069Z,25.20
2022-12-05T01:49:19.109Z,24.67
2022-12-05T01:53:29.105Z,22.83
2022-12-05T01:57:38.929Z,23.63
2022-12-05T02:01:48.179Z,25.10
2022-12-05T02:06:00.732Z,22.43
2022-12-05T02:10:11.169Z,25.40
2022-12-05T02:14:32.811Z,26.13
2022-12-05T02:18:54.749Z,23.80
2022-12-05T02:23:33.127Z,29.83
2022-12-05T02:28:02.129Z,28.67
2022-12-05T02:32:19.807Z,28.33
2022-12-05T02:36:38.589Z,26.97
2022-12-05T02:40:56.670Z,30.50
2022-12-05T02:45:10.258Z,25.67
2022-12-05T02:49:24.888Z,27.30
2022-12-05T02:53:36.989Z,25.93
2022-12-05T02:57:50.933Z,25.80
2022-12-05T03:02:00.164Z,22.60
2022-12-05T03:06:15.507Z,24.77
2022-12-05T03:10:27.906Z,27.83
2022-12-05T03:14:40.708Z,25.93
2022-12-05T03:18:53.424Z,24.90
2022-12-05T03:23:09.671Z,29.37
2022-12-05T03:27:27.912Z,29.13
2022-12-05T03:31:44.230Z,26.50
2022-12-05T03:36:02.832Z,27.47
2022-12-05T03:40:19.327Z,30.50
2022-12-05T03:44:35.587Z,29.03
2022-12-05T03:48:55.107Z,26.83
2022-12-05T03:53:19.746Z,28.83
2022-12-05T03:57:36.330Z,31.33
2022-12-05T04:01:47.626Z,32.67
2022-12-05T04:05:59.629Z,34.37
2022-12-05T04:10:14.628Z,29.70
2022-12-05T04:14:34.306Z,29.93
2022-12-05T04:18:48.452Z,30.13
2022-12-05T04:22:57.646Z,39.63
2022-12-05T04:27:17.192Z,30.70
2022-12-05T04:31:34.606Z,32.00
2022-12-05T04:35:48.126Z,26.77
2022-12-05T04:40:01.149Z,30.13
2022-12-05T04:44:13.247Z,25.30
2022-12-05T04:48:26.986Z,26.07
2022-12-05T04:52:36.787Z,27.57
2022-12-05T04:56:50.187Z,29.80
2022-12-05T05:01:05.249Z,26.43
2022-12-05T05:05:19.711Z,26.03
2022-12-05T05:09:28.843Z,28.13
2022-12-05T05:13:38.068Z,29.00
2022-12-05T05:17:47.291Z,27.67
2022-12-05T05:21:58.129Z,30.57
2022-12-05T05:26:07.528Z,30.17
2022-12-05T05:30:17.124Z,30.90
2022-12-05T05:34:28.829Z,33.87
2022-12-05T05:38:40.326Z,35.17
2022-12-05T05:42:51.549Z,32.60
2022-12-05T05:47:00.723Z,32.10
2022-12-05T05:51:12.167Z,29.97
2022-12-05T05:55:23.247Z,30.53
2022-12-05T05:59:32.387Z,31.50
2022-12-05T06:03:42.170Z,32.83
2022-12-05T06:07:51.584Z,30.73
2022-12-05T06:12:02.768Z,33.33
2022-12-05T06:16:13.960Z,34.40
2022-12-05T06:20:23.152Z,33.00
2022-12-05T06:24:33.309Z,30.83
2022-12-05T06:28:44.768Z,34.23
2022-12-05T06:32:54.010Z,35.83
2022-12-05T06:37:03.627Z,31.93
2022-12-05T06:41:15.435Z,30.27
2022-12-05T06:45:26.256Z,32.90
2022-12-05T06:49:38.055Z,26.40
2022-12-05T06:53:47.512Z,31.43
2022-12-05T06:57:56.590Z,30.70
2022-12-05T07:02:08.667Z,29.27
2022-12-05T07:06:18.847Z,30.40
2022-12-05T07:10:28.006Z,29.53
2022-12-05T07:14:47.490Z,28.23
2022-12-05T07:19:00.045Z,27.93
2022-12-05T07:23:09.206Z,30.40
2022-12-05T07:27:23.315Z,25.30
2022-12-05T07:31:37.269Z,27.90
2022-12-05T07:35:47.969Z,27.07
2022-12-05T07:39:57.148Z,25.83
2022-12-05T07:44:06.990Z,27.63
2022-12-05T07:48:18.765Z,28.53
2022-12-05T07:52:30.189Z,26.97
2022-12-05T07:56:43.300Z,28.37
2022-12-05T08:00:56.603Z,30.50
2022-12-05T08:05:06.265Z,28.37
2022-12-05T08:09:16.927Z,29.60
2022-12-05T08:13:26.007Z,30.90
2022-12-05T08:17:35.148Z,30.63
2022-12-05T08:21:44.609Z,30.37
2022-12-05T08:25:55.109Z,28.70
2022-12-05T08:30:04.345Z,30.77
2022-12-05T08:34:15.166Z,30.53
2022-12-05T08:38:24.365Z,31.47
2022-12-05T08:42:34.953Z,29.07
2022-12-05T08:46:46.021Z,31.00
2022-12-05T08:50:55.186Z,29.90
2022-12-05T08:55:04.604Z,27.50
2022-12-05T08:59:16.948Z,28.27
2022-12-05T09:03:26.447Z,26.50
2022-12-05T09:07:35.894Z,28.27
2022-12-05T09:11:51.154Z,27.77
2022-12-05T09:16:06.270Z,27.00
2022-12-05T09:20:15.848Z,29.37
2022-12-05T09:24:25.004Z,30.30
2022-12-05T09:28:34.969Z,30.90
2022-12-05T09:32:46.467Z,28.20
2022-12-05T09:37:10.237Z,28.63
2022-12-05T09:41:46.185Z,29.30
2022-12-05T09:46:03.645Z,29.53
2022-12-05T09:50:23.369Z,29.20
2022-12-05T09:54:33.546Z,29.40
2022-12-05T09:58:45.197Z,26.03
2022-12-05T10:03:04.089Z,26.90
2022-12-05T10:07:23.027Z,27.57
2022-12-05T10:11:41.009Z,27.53
2022-12-05T10:15:57.195Z,26.67
2022-12-05T10:20:13.888Z,27.53
2022-12-05T10:24:31.712Z,25.00
2022-12-05T10:28:48.706Z,24.67
2022-12-05T10:33:01.014Z,26.07
2022-12-05T10:37:17.226Z,23.27
2022-12-05T10:41:28.964Z,22.90
2022-12-05T10:45:43.486Z,23.17
2022-12-05T10:49:53.330Z,22.27
2022-12-05T10:54:03.427Z,22.63
2022-12-05T10:58:17.802Z,19.60
2022-12-05T11:02:30.748Z,23.27
2022-12-05T11:06:40.486Z,19.90
2022-12-05T11:10:49.947Z,20.03
2022-12-05T11:15:04.627Z,24.17
2022-12-05T11:19:27.149Z,19.57
2022-12-05T11:23:36.266Z,22.37
2022-12-05T11:27:45.509Z,23.40
2022-12-05T11:31:56.309Z,18.63
2022-12-05T11:36:13.527Z,20.73
2022-12-05T11:40:36.532Z,20.93
2022-12-05T11:45:17.948Z,19.43
2022-12-05T11:49:47.010Z,20.00
2022-12-05T11:55:02.896Z,18.57
2022-12-05T11:59:11.210Z,21.00
2022-12-05T12:03:59.069Z,17.97
2022-12-05T12:08:21.320Z,18.77
2022-12-05T12:12:38.486Z,18.97
2022-12-05T12:16:58.311Z,17.53
2022-12-05T12:21:19.232Z,18.93
2022-12-05T12:25:40.010Z,17.70
2022-12-05T12:30:02.249Z,17.90
2022-12-05T12:34:33.168Z,16.53
2022-12-05T12:39:12.928Z,18.60
2022-12-05T12:43:55.009Z,16.10
2022-12-05T12:48:20.468Z,17.33
2022-12-05T12:52:36.223Z,15.83
2022-12-05T12:56:57.886Z,14.20
2022-12-05T13:01:18.774Z,16.93
2022-12-05T13:05:35.208Z,17.47
2022-12-05T13:09:51.865Z,14.83
2022-12-05T13:14:03.524Z,17.40
2022-12-05T13:18:18.266Z,17.40
2022-12-05T13:22:30.144Z,18.80
2022-12-05T13:26:49.504Z,15.63
2022-12-05T13:31:01.982Z,17.53
2022-12-05T13:35:14.088Z,17.60
2022-12-05T13:39:41.370Z,15.60
2022-12-05T13:44:06.252Z,19.50
2022-12-05T13:48:22.667Z,17.10
2022-12-05T13:52:41.989Z,17.33
2022-12-05T13:56:54.128Z,17.73
2022-12-05T14:01:42.396Z,18.80
2022-12-05T14:05:55.690Z,16.37
2022-12-05T14:10:07.639Z,17.43
2022-12-05T14:14:51.548Z,16.77
2022-12-05T14:19:06.767Z,17.13
2022-12-05T14:23:45.688Z,15.97
2022-12-05T14:28:00.849Z,13.67
2022-12-05T14:32:21.226Z,16.47
2022-12-05T14:36:32.005Z,15.80
2022-12-05T14:40:43.668Z,16.63
2022-12-05T14:44:57.047Z,16.40
2022-12-05T14:49:38.599Z,15.03
2022-12-05T14:53:51.764Z,14.97
2022-12-05T14:58:00.906Z,16.03
2022-12-05T15:02:21.808Z,14.27
2022-12-05T15:06:31.367Z,13.80
2022-12-05T15:10:41.508Z,16.73
2022-12-05T15:15:01.379Z,14.53
2022-12-05T15:19:19.506Z,13.80
2022-12-05T15:23:42.978Z,13.30
2022-12-05T15:27:57.428Z,14.67
2022-12-05T15:32:17.211Z,15.13
2022-12-05T15:36:34.027Z,12.43
2022-12-05T15:40:48.090Z,12.40
2022-12-05T15:45:17.288Z,11.30
2022-12-05T15:49:28.466Z,14.57
2022-12-05T15:53:44.887Z,12.10
2022-12-05T15:57:59.584Z,10.37
2022-12-05T16:02:17.142Z,11.00
2022-12-05T16:06:30.967Z,11.60
2022-12-05T16:10:42.045Z,11.50
2022-12-05T16:15:01.361Z,10.67
2022-12-05T16:19:17.666Z,11.83
2022-12-05T16:23:30.344Z,15.10
2022-12-05T16:27:41.251Z,10.30
2022-12-05T16:31:57.128Z,11.77
2022-12-05T16:36:15.947Z,10.60
2022-12-05T16:40:25.385Z,13.60
2022-12-05T16:45:03.827Z,13.77
2022-12-05T16:49:23.306Z,14.37
2022-12-05T16:53:34.586Z,14.47
2022-12-05T16:57:43.746Z,13.50
2022-12-05T17:01:54.516Z,13.90
2022-12-05T17:06:03.970Z,16.73
2022-12-05T17:10:13.023Z,16.93
2022-12-05T17:14:23.112Z,17.63
2022-12-05T17:18:34.565Z,17.67
2022-12-05T17:22:43.726Z,16.83
2022-12-05T17:26:52.784Z,17.70
2022-12-05T17:31:01.993Z,18.80
2022-12-05T17:35:18.007Z,18.93
2022-12-05T17:39:28.752Z,18.10
2022-12-05T17:43:38.672Z,18.57
2022-12-05T17:47:47.769Z,19.37
2022-12-05T17:52:20.910Z,18.87
2022-12-05T17:56:29.768Z,19.80
2022-12-05T18:00:39.379Z,16.17
2022-12-05T18:04:48.588Z,17.90
2022-12-05T18:08:59.245Z,18.87
2022-12-05T18:13:08.367Z,16.83
2022-12-05T18:17:17.530Z,17.77
2022-12-05T18:21:27.127Z,18.70
2022-12-05T18:25:37.769Z,17.93
2022-12-05T18:29:49.145Z,19.77
2022-12-05T18:33:58.247Z,17.97
2022-12-05T18:38:07.444Z,17.03
2022-12-05T18:42:18.104Z,17.23
2022-12-05T18:46:27.268Z,17.97
2022-12-05T18:50:36.309Z,18.27
2022-12-05T18:54:50.671Z,17.73
2022-12-05T18:59:10.108Z,16.83
2022-12-05T19:03:20.267Z,18.57
2022-12-05T19:07:29.366Z,19.03
2022-12-05T19:11:41.710Z,16.03
2022-12-05T19:16:02.114Z,17.43
2022-12-05T19:20:12.169Z,19.63
2022-12-05T19:24:21.364Z,17.87
2022-12-05T19:28:30.686Z,15.93
2022-12-05T19:32:41.390Z,17.03
2022-12-05T19:36:50.533Z,17.80
2022-12-05T19:40:59.591Z,18.63
2022-12-05T19:45:16.393Z,21.37
2022-12-05T19:49:28.546Z,17.97
2022-12-05T19:53:41.430Z,20.03
2022-12-05T19:57:50.689Z,21.37
2022-12-05T20:01:59.802Z,20.47
2022-12-05T20:06:11.409Z,21.20
2022-12-05T20:10:20.847Z,23.00
2022-12-05T20:14:30.047Z,20.23
2022-12-05T20:18:40.249Z,18.90
2022-12-05T20:22:50.827Z,21.23
2022-12-05T20:27:01.937Z,20.97
2022-12-05T20:31:13.327Z,22.83
2022-12-05T20:35:24.232Z,21.67
2022-12-05T20:39:35.678Z,22.73
2022-12-05T20:43:45.666Z,21.00
2022-12-05T20:47:54.847Z,22.63
2022-12-05T20:52:03.966Z,21.80
2022-12-05T20:56:47.430Z,21.80
2022-12-05T21:01:00.707Z,22.00
2022-12-05T21:05:13.505Z,21.27
2022-12-05T21:09:29.690Z,20.40
2022-12-05T21:13:41.091Z,19.57
2022-12-05T21:17:50.388Z,21.43
2022-12-05T21:21:59.648Z,19.43
2022-12-05T21:26:12.467Z,20.33
2022-12-05T21:30:23.466Z,19.07
2022-12-05T21:34:32.787Z,19.00
2022-12-05T21:38:42.664Z,22.63
2022-12-05T21:42:52.007Z,18.13
2022-12-05T21:47:02.904Z,17.17
2022-12-05T21:51:14.006Z,20.07
2022-12-05T21:55:23.327Z,18.70
2022-12-05T21:59:34.368Z,19.40
2022-12-05T22:03:45.401Z,20.63
2022-12-05T22:07:54.576Z,20.30
2022-12-05T22:12:03.788Z,22.50
2022-12-05T22:16:13.952Z,20.27
2022-12-05T22:20:25.389Z,20.27
2022-12-05T22:24:34.470Z,18.80
2022-12-05T22:28:43.551Z,18.70
2022-12-05T22:32:55.307Z,18.80
2022-12-05T22:37:06.327Z,22.77
2022-12-05T22:41:17.324Z,23.00
2022-12-05T22:45:26.566Z,22.80
2022-12-05T22:49:35.645Z,22.17
2022-12-05T22:53:46.767Z,19.87
2022-12-05T22:57:55.864Z,21.33
2022-12-05T23:02:04.901Z,22.27
2022-12-05T23:06:15.623Z,22.77
2022-12-05T23:10:26.347Z,21.70
2022-12-05T23:14:35.467Z,23.53
2022-12-05T23:18:48.352Z,22.33
2022-12-05T23:22:57.605Z,23.33
2022-12-05T23:27:08.309Z,26.97
2022-12-05T23:31:18.260Z,25.97
2022-12-05T23:35:27.568Z,24.63
2022-12-05T23:39:36.688Z,22.57
2022-12-05T23:43:47.883Z,23.90
2022-12-05T23:48:01.741Z,24.80
2022-12-05T23:52:13.507Z,24.47
2022-12-05T23:56:25.596Z,27.40
